sensor_id;sensor_type;location;lat;lon;timestamp;P1;durP1;ratioP1;P2;durP2;ratioP2
70997;SDS011;58663;52.040;4.634;2023-04-25T00:01:17;14.98;;;4.13;;
70997;SDS011;58663;52.040;4.634;2023-04-25T00:03:42;12.23;;;3.08;;
70997;SDS011;58663;52.040;4.634;2023-04-25T00:06:07;14.93;;;3.05;;
70997;SDS011;58663;52.040;4.634;2023-04-25T00:08:33;13.48;;;3.30;;
70997;SDS011;58663;52.040;4.634;2023-04-25T00:10:58;12.75;;;3.00;;
70997;SDS011;58663;52.040;4.634;2023-04-25T00:13:24;9.70;;;3.20;;
70997;SDS011;58663;52.040;4.634;2023-04-25T00:15:50;8.05;;;2.95;;
70997;SDS011;58663;52.040;4.634;2023-04-25T00:18:16;11.25;;;3.13;;
70997;SDS011;58663;52.040;4.634;2023-04-25T00:20:42;17.27;;;3.83;;
70997;SDS011;58663;52.040;4.634;2023-04-25T00:23:11;12.30;;;3.65;;
70997;SDS011;58663;52.040;4.634;2023-04-25T00:25:47;13.40;;;3.20;;
70997;SDS011;58663;52.040;4.634;2023-04-25T00:28:13;19.13;;;3.58;;
70997;SDS011;58663;52.040;4.634;2023-04-25T00:30:39;12.70;;;2.70;;
70997;SDS011;58663;52.040;4.634;2023-04-25T00:36:27;16.98;;;2.70;;
70997;SDS011;58663;52.040;4.634;2023-04-25T00:38:52;9.50;;;2.75;;
70997;SDS011;58663;52.040;4.634;2023-04-25T00:41:19;11.55;;;3.00;;
70997;SDS011;58663;52.040;4.634;2023-04-25T00:43:44;12.07;;;3.20;;
70997;SDS011;58663;52.040;4.634;2023-04-25T00:46:10;13.88;;;3.25;;
70997;SDS011;58663;52.040;4.634;2023-04-25T00:48:36;19.05;;;3.78;;
70997;SDS011;58663;52.040;4.634;2023-04-25T00:51:01;8.63;;;2.92;;
70997;SDS011;58663;52.040;4.634;2023-04-25T00:53:27;4.45;;;2.80;;
70997;SDS011;58663;52.040;4.634;2023-04-25T00:55:53;7.63;;;2.70;;
70997;SDS011;58663;52.040;4.634;2023-04-25T00:58:19;12.18;;;3.03;;
70997;SDS011;58663;52.040;4.634;2023-04-25T01:00:45;10.15;;;3.70;;
70997;SDS011;58663;52.040;4.634;2023-04-25T01:03:12;13.02;;;2.60;;
70997;SDS011;58663;52.040;4.634;2023-04-25T01:05:38;13.48;;;2.72;;
70997;SDS011;58663;52.040;4.634;2023-04-25T01:08:05;8.65;;;2.70;;
70997;SDS011;58663;52.040;4.634;2023-04-25T01:10:31;13.48;;;3.28;;
70997;SDS011;58663;52.040;4.634;2023-04-25T01:12:56;12.52;;;2.95;;
70997;SDS011;58663;52.040;4.634;2023-04-25T01:15:21;7.07;;;2.80;;
70997;SDS011;58663;52.040;4.634;2023-04-25T01:17:47;12.07;;;2.78;;
70997;SDS011;58663;52.040;4.634;2023-04-25T01:20:14;8.88;;;2.53;;
70997;SDS011;58663;52.040;4.634;2023-04-25T01:22:40;5.43;;;2.50;;
70997;SDS011;58663;52.040;4.634;2023-04-25T01:25:05;13.55;;;3.20;;
70997;SDS011;58663;52.040;4.634;2023-04-25T01:27:32;12.13;;;2.60;;
70997;SDS011;58663;52.040;4.634;2023-04-25T01:29:57;6.28;;;2.45;;
70997;SDS011;58663;52.040;4.634;2023-04-25T01:32:23;7.25;;;3.20;;
70997;SDS011;58663;52.040;4.634;2023-04-25T01:34:48;12.45;;;2.90;;
70997;SDS011;58663;52.040;4.634;2023-04-25T01:37:14;7.32;;;2.80;;
70997;SDS011;58663;52.040;4.634;2023-04-25T01:39:40;10.10;;;2.33;;
70997;SDS011;58663;52.040;4.634;2023-04-25T01:42:05;4.93;;;2.53;;
70997;SDS011;58663;52.040;4.634;2023-04-25T01:44:31;13.75;;;3.03;;
70997;SDS011;58663;52.040;4.634;2023-04-25T01:46:56;9.88;;;3.40;;
70997;SDS011;58663;52.040;4.634;2023-04-25T01:49:22;10.07;;;2.20;;
70997;SDS011;58663;52.040;4.634;2023-04-25T01:51:47;7.95;;;2.60;;
70997;SDS011;58663;52.040;4.634;2023-04-25T01:54:13;11.73;;;2.80;;
70997;SDS011;58663;52.040;4.634;2023-04-25T01:56:38;7.05;;;3.33;;
70997;SDS011;58663;52.040;4.634;2023-04-25T01:59:04;12.30;;;3.28;;
70997;SDS011;58663;52.040;4.634;2023-04-25T02:01:30;7.63;;;2.55;;
70997;SDS011;58663;52.040;4.634;2023-04-25T02:03:56;5.68;;;2.75;;
70997;SDS011;58663;52.040;4.634;2023-04-25T02:06:21;5.70;;;2.38;;
70997;SDS011;58663;52.040;4.634;2023-04-25T02:08:46;11.80;;;2.65;;
70997;SDS011;58663;52.040;4.634;2023-04-25T02:11:12;8.98;;;2.72;;
70997;SDS011;58663;52.040;4.634;2023-04-25T02:13:37;9.50;;;2.90;;
70997;SDS011;58663;52.040;4.634;2023-04-25T02:16:03;12.18;;;2.50;;
70997;SDS011;58663;52.040;4.634;2023-04-25T02:18:28;9.23;;;3.25;;
70997;SDS011;58663;52.040;4.634;2023-04-25T02:20:53;9.55;;;3.13;;
70997;SDS011;58663;52.040;4.634;2023-04-25T02:23:19;12.50;;;2.35;;
70997;SDS011;58663;52.040;4.634;2023-04-25T02:25:44;5.90;;;2.15;;
70997;SDS011;58663;52.040;4.634;2023-04-25T02:28:10;7.05;;;2.90;;
70997;SDS011;58663;52.040;4.634;2023-04-25T02:30:35;6.57;;;2.70;;
70997;SDS011;58663;52.040;4.634;2023-04-25T02:33:01;7.50;;;2.72;;
70997;SDS011;58663;52.040;4.634;2023-04-25T02:35:26;14.63;;;2.72;;
70997;SDS011;58663;52.040;4.634;2023-04-25T02:37:52;6.53;;;2.78;;
70997;SDS011;58663;52.040;4.634;2023-04-25T02:40:17;10.75;;;2.67;;
70997;SDS011;58663;52.040;4.634;2023-04-25T02:42:42;13.32;;;2.85;;
70997;SDS011;58663;52.040;4.634;2023-04-25T02:45:10;10.13;;;2.55;;
70997;SDS011;58663;52.040;4.634;2023-04-25T02:47:36;10.90;;;3.17;;
70997;SDS011;58663;52.040;4.634;2023-04-25T02:50:01;8.00;;;2.45;;
70997;SDS011;58663;52.040;4.634;2023-04-25T02:52:26;4.95;;;2.00;;
70997;SDS011;58663;52.040;4.634;2023-04-25T02:54:52;9.55;;;2.53;;
70997;SDS011;58663;52.040;4.634;2023-04-25T02:57:17;8.05;;;2.53;;
70997;SDS011;58663;52.040;4.634;2023-04-25T02:59:42;9.52;;;2.63;;
70997;SDS011;58663;52.040;4.634;2023-04-25T03:02:08;14.07;;;2.53;;
70997;SDS011;58663;52.040;4.634;2023-04-25T03:04:33;7.75;;;2.75;;
70997;SDS011;58663;52.040;4.634;2023-04-25T03:06:58;8.25;;;2.25;;
70997;SDS011;58663;52.040;4.634;2023-04-25T03:09:24;17.00;;;3.17;;
70997;SDS011;58663;52.040;4.634;2023-04-25T03:11:49;14.80;;;3.20;;
70997;SDS011;58663;52.040;4.634;2023-04-25T03:14:15;7.65;;;3.03;;
70997;SDS011;58663;52.040;4.634;2023-04-25T03:16:40;5.07;;;1.88;;
70997;SDS011;58663;52.040;4.634;2023-04-25T03:19:06;10.63;;;1.80;;
70997;SDS011;58663;52.040;4.634;2023-04-25T03:21:32;12.65;;;2.20;;
70997;SDS011;58663;52.040;4.634;2023-04-25T03:23:58;6.15;;;2.38;;
70997;SDS011;58663;52.040;4.634;2023-04-25T03:26:24;16.63;;;2.90;;
70997;SDS011;58663;52.040;4.634;2023-04-25T03:28:49;6.65;;;2.42;;
70997;SDS011;58663;52.040;4.634;2023-04-25T03:31:15;10.07;;;2.58;;
70997;SDS011;58663;52.040;4.634;2023-04-25T03:33:40;10.68;;;2.30;;
70997;SDS011;58663;52.040;4.634;2023-04-25T03:36:06;9.07;;;2.17;;
70997;SDS011;58663;52.040;4.634;2023-04-25T03:38:31;7.20;;;2.15;;
70997;SDS011;58663;52.040;4.634;2023-04-25T03:40:57;7.47;;;1.90;;
70997;SDS011;58663;52.040;4.634;2023-04-25T03:43:22;8.43;;;2.05;;
70997;SDS011;58663;52.040;4.634;2023-04-25T03:45:48;5.55;;;1.58;;
70997;SDS011;58663;52.040;4.634;2023-04-25T03:48:13;9.07;;;1.60;;
70997;SDS011;58663;52.040;4.634;2023-04-25T03:50:38;4.78;;;1.75;;
70997;SDS011;58663;52.040;4.634;2023-04-25T03:53:04;5.15;;;1.75;;
70997;SDS011;58663;52.040;4.634;2023-04-25T03:55:29;11.45;;;2.60;;
70997;SDS011;58663;52.040;4.634;2023-04-25T03:57:55;8.65;;;2.00;;
70997;SDS011;58663;52.040;4.634;2023-04-25T04:00:22;7.13;;;1.98;;
70997;SDS011;58663;52.040;4.634;2023-04-25T04:02:48;6.30;;;1.77;;
70997;SDS011;58663;52.040;4.634;2023-04-25T04:05:13;4.47;;;1.77;;
70997;SDS011;58663;52.040;4.634;2023-04-25T04:07:39;11.00;;;1.63;;
70997;SDS011;58663;52.040;4.634;2023-04-25T04:10:06;8.88;;;2.63;;
70997;SDS011;58663;52.040;4.634;2023-04-25T04:12:32;13.75;;;3.00;;
70997;SDS011;58663;52.040;4.634;2023-04-25T04:14:58;7.35;;;1.90;;
70997;SDS011;58663;52.040;4.634;2023-04-25T04:17:23;4.95;;;1.90;;
70997;SDS011;58663;52.040;4.634;2023-04-25T04:19:48;3.80;;;1.58;;
70997;SDS011;58663;52.040;4.634;2023-04-25T04:22:14;7.47;;;1.83;;
70997;SDS011;58663;52.040;4.634;2023-04-25T04:24:39;8.30;;;2.00;;
70997;SDS011;58663;52.040;4.634;2023-04-25T04:27:05;10.55;;;2.15;;
70997;SDS011;58663;52.040;4.634;2023-04-25T04:29:31;15.18;;;3.17;;
70997;SDS011;58663;52.040;4.634;2023-04-25T04:31:56;13.57;;;3.03;;
70997;SDS011;58663;52.040;4.634;2023-04-25T04:34:21;3.30;;;1.67;;
70997;SDS011;58663;52.040;4.634;2023-04-25T04:36:47;11.05;;;2.00;;
70997;SDS011;58663;52.040;4.634;2023-04-25T04:39:12;14.20;;;2.65;;
70997;SDS011;58663;52.040;4.634;2023-04-25T04:41:38;6.32;;;1.98;;
70997;SDS011;58663;52.040;4.634;2023-04-25T04:44:04;7.45;;;1.92;;
70997;SDS011;58663;52.040;4.634;2023-04-25T04:46:31;6.07;;;2.05;;
70997;SDS011;58663;52.040;4.634;2023-04-25T04:48:57;5.95;;;2.45;;
70997;SDS011;58663;52.040;4.634;2023-04-25T04:51:23;6.97;;;2.17;;
70997;SDS011;58663;52.040;4.634;2023-04-25T04:53:48;9.52;;;2.35;;
70997;SDS011;58663;52.040;4.634;2023-04-25T04:56:14;7.45;;;2.05;;
70997;SDS011;58663;52.040;4.634;2023-04-25T04:58:40;7.32;;;2.00;;
70997;SDS011;58663;52.040;4.634;2023-04-25T05:01:05;12.00;;;2.33;;
70997;SDS011;58663;52.040;4.634;2023-04-25T05:03:31;12.02;;;2.10;;
70997;SDS011;58663;52.040;4.634;2023-04-25T05:05:56;6.25;;;1.85;;
70997;SDS011;58663;52.040;4.634;2023-04-25T05:08:21;6.43;;;2.20;;
70997;SDS011;58663;52.040;4.634;2023-04-25T05:10:47;3.72;;;1.92;;
70997;SDS011;58663;52.040;4.634;2023-04-25T05:13:12;4.22;;;1.80;;
70997;SDS011;58663;52.040;4.634;2023-04-25T05:15:37;12.93;;;2.08;;
70997;SDS011;58663;52.040;4.634;2023-04-25T05:18:03;8.18;;;2.08;;
70997;SDS011;58663;52.040;4.634;2023-04-25T05:20:28;9.45;;;2.30;;
70997;SDS011;58663;52.040;4.634;2023-04-25T05:22:54;7.18;;;1.83;;
70997;SDS011;58663;52.040;4.634;2023-04-25T05:25:19;8.60;;;3.08;;
70997;SDS011;58663;52.040;4.634;2023-04-25T05:27:45;6.43;;;2.13;;
70997;SDS011;58663;52.040;4.634;2023-04-25T05:30:10;12.57;;;1.98;;
70997;SDS011;58663;52.040;4.634;2023-04-25T05:32:36;6.10;;;2.03;;
70997;SDS011;58663;52.040;4.634;2023-04-25T05:35:01;10.52;;;2.03;;
70997;SDS011;58663;52.040;4.634;2023-04-25T05:37:27;4.38;;;2.13;;
70997;SDS011;58663;52.040;4.634;2023-04-25T05:39:55;11.73;;;3.03;;
70997;SDS011;58663;52.040;4.634;2023-04-25T05:42:20;7.38;;;2.60;;
70997;SDS011;58663;52.040;4.634;2023-04-25T05:44:46;8.85;;;1.67;;
70997;SDS011;58663;52.040;4.634;2023-04-25T05:47:11;9.45;;;2.03;;
70997;SDS011;58663;52.040;4.634;2023-04-25T05:49:36;10.57;;;1.67;;
70997;SDS011;58663;52.040;4.634;2023-04-25T05:52:02;4.50;;;1.48;;
70997;SDS011;58663;52.040;4.634;2023-04-25T05:54:27;7.18;;;2.13;;
70997;SDS011;58663;52.040;4.634;2023-04-25T05:56:53;4.75;;;1.75;;
70997;SDS011;58663;52.040;4.634;2023-04-25T05:59:18;7.43;;;1.88;;
70997;SDS011;58663;52.040;4.634;2023-04-25T06:01:44;11.50;;;1.95;;
70997;SDS011;58663;52.040;4.634;2023-04-25T06:04:09;5.78;;;1.70;;
70997;SDS011;58663;52.040;4.634;2023-04-25T06:06:35;4.03;;;1.15;;
70997;SDS011;58663;52.040;4.634;2023-04-25T06:09:00;3.70;;;1.60;;
70997;SDS011;58663;52.040;4.634;2023-04-25T06:11:26;4.50;;;1.40;;
70997;SDS011;58663;52.040;4.634;2023-04-25T06:13:51;3.75;;;1.10;;
70997;SDS011;58663;52.040;4.634;2023-04-25T06:16:16;9.02;;;1.23;;
70997;SDS011;58663;52.040;4.634;2023-04-25T06:18:42;4.93;;;1.38;;
70997;SDS011;58663;52.040;4.634;2023-04-25T06:21:07;2.65;;;1.02;;
70997;SDS011;58663;52.040;4.634;2023-04-25T06:23:32;8.50;;;1.65;;
70997;SDS011;58663;52.040;4.634;2023-04-25T06:25:58;3.97;;;1.33;;
70997;SDS011;58663;52.040;4.634;2023-04-25T06:28:23;9.80;;;2.05;;
70997;SDS011;58663;52.040;4.634;2023-04-25T06:30:49;8.40;;;1.50;;
70997;SDS011;58663;52.040;4.634;2023-04-25T06:33:15;3.97;;;1.27;;
70997;SDS011;58663;52.040;4.634;2023-04-25T06:35:40;4.68;;;1.23;;
70997;SDS011;58663;52.040;4.634;2023-04-25T06:38:06;7.20;;;1.23;;
70997;SDS011;58663;52.040;4.634;2023-04-25T06:40:31;5.60;;;1.83;;
70997;SDS011;58663;52.040;4.634;2023-04-25T06:42:56;9.65;;;1.77;;
70997;SDS011;58663;52.040;4.634;2023-04-25T06:45:23;6.57;;;1.50;;
70997;SDS011;58663;52.040;4.634;2023-04-25T06:47:48;5.53;;;1.70;;
70997;SDS011;58663;52.040;4.634;2023-04-25T06:50:13;3.58;;;1.52;;
70997;SDS011;58663;52.040;4.634;2023-04-25T06:52:39;7.80;;;1.25;;
70997;SDS011;58663;52.040;4.634;2023-04-25T06:55:04;5.50;;;1.42;;
70997;SDS011;58663;52.040;4.634;2023-04-25T06:57:30;6.65;;;1.35;;
70997;SDS011;58663;52.040;4.634;2023-04-25T06:59:56;3.83;;;1.55;;
70997;SDS011;58663;52.040;4.634;2023-04-25T07:02:21;2.28;;;1.33;;
70997;SDS011;58663;52.040;4.634;2023-04-25T07:04:47;6.88;;;1.58;;
70997;SDS011;58663;52.040;4.634;2023-04-25T07:07:12;5.93;;;1.60;;
70997;SDS011;58663;52.040;4.634;2023-04-25T07:09:38;6.60;;;1.52;;
70997;SDS011;58663;52.040;4.634;2023-04-25T07:12:03;9.20;;;1.75;;
70997;SDS011;58663;52.040;4.634;2023-04-25T07:14:29;6.20;;;1.23;;
70997;SDS011;58663;52.040;4.634;2023-04-25T07:16:54;7.32;;;1.75;;
70997;SDS011;58663;52.040;4.634;2023-04-25T07:19:21;8.40;;;1.33;;
70997;SDS011;58663;52.040;4.634;2023-04-25T07:21:48;3.45;;;1.20;;
70997;SDS011;58663;52.040;4.634;2023-04-25T07:24:14;3.10;;;1.17;;
70997;SDS011;58663;52.040;4.634;2023-04-25T07:26:39;5.15;;;1.63;;
70997;SDS011;58663;52.040;4.634;2023-04-25T07:29:05;3.42;;;1.30;;
70997;SDS011;58663;52.040;4.634;2023-04-25T07:31:31;9.48;;;1.45;;
70997;SDS011;58663;52.040;4.634;2023-04-25T07:33:57;6.70;;;1.17;;
70997;SDS011;58663;52.040;4.634;2023-04-25T07:36:22;4.63;;;1.27;;
70997;SDS011;58663;52.040;4.634;2023-04-25T07:38:47;5.30;;;1.90;;
70997;SDS011;58663;52.040;4.634;2023-04-25T07:41:13;6.70;;;1.77;;
70997;SDS011;58663;52.040;4.634;2023-04-25T07:43:38;11.15;;;1.70;;
70997;SDS011;58663;52.040;4.634;2023-04-25T07:46:03;7.30;;;1.20;;
70997;SDS011;58663;52.040;4.634;2023-04-25T07:48:29;4.18;;;0.98;;
70997;SDS011;58663;52.040;4.634;2023-04-25T07:50:54;13.20;;;1.45;;
70997;SDS011;58663;52.040;4.634;2023-04-25T07:53:19;3.03;;;1.23;;
70997;SDS011;58663;52.040;4.634;2023-04-25T07:55:45;2.85;;;1.02;;
70997;SDS011;58663;52.040;4.634;2023-04-25T07:58:11;6.35;;;1.27;;
70997;SDS011;58663;52.040;4.634;2023-04-25T08:00:36;4.70;;;1.17;;
70997;SDS011;58663;52.040;4.634;2023-04-25T08:03:02;6.30;;;1.58;;
70997;SDS011;58663;52.040;4.634;2023-04-25T08:05:27;5.82;;;0.90;;
70997;SDS011;58663;52.040;4.634;2023-04-25T08:07:53;3.00;;;0.95;;
70997;SDS011;58663;52.040;4.634;2023-04-25T08:10:18;4.57;;;1.38;;
70997;SDS011;58663;52.040;4.634;2023-04-25T08:12:44;7.82;;;1.20;;
70997;SDS011;58663;52.040;4.634;2023-04-25T08:15:09;9.15;;;1.40;;
70997;SDS011;58663;52.040;4.634;2023-04-25T08:17:35;6.43;;;1.40;;
70997;SDS011;58663;52.040;4.634;2023-04-25T08:20:00;5.38;;;1.45;;
70997;SDS011;58663;52.040;4.634;2023-04-25T08:22:26;5.18;;;0.98;;
70997;SDS011;58663;52.040;4.634;2023-04-25T08:24:51;4.30;;;1.23;;
70997;SDS011;58663;52.040;4.634;2023-04-25T08:27:17;7.75;;;1.20;;
70997;SDS011;58663;52.040;4.634;2023-04-25T08:29:43;10.05;;;2.08;;
70997;SDS011;58663;52.040;4.634;2023-04-25T08:32:08;5.68;;;1.13;;
70997;SDS011;58663;52.040;4.634;2023-04-25T08:34:34;12.07;;;1.35;;
70997;SDS011;58663;52.040;4.634;2023-04-25T08:36:59;9.05;;;1.42;;
70997;SDS011;58663;52.040;4.634;2023-04-25T08:39:24;3.53;;;0.90;;
70997;SDS011;58663;52.040;4.634;2023-04-25T08:41:50;7.35;;;1.20;;
70997;SDS011;58663;52.040;4.634;2023-04-25T08:44:15;12.48;;;1.00;;
70997;SDS011;58663;52.040;4.634;2023-04-25T08:46:41;4.65;;;1.83;;
70997;SDS011;58663;52.040;4.634;2023-04-25T08:49:07;4.35;;;1.15;;
70997;SDS011;58663;52.040;4.634;2023-04-25T08:51:36;4.80;;;1.27;;
70997;SDS011;58663;52.040;4.634;2023-04-25T08:54:09;5.05;;;1.33;;
70997;SDS011;58663;52.040;4.634;2023-04-25T08:56:36;10.38;;;1.30;;
70997;SDS011;58663;52.040;4.634;2023-04-25T08:59:03;4.43;;;1.08;;
70997;SDS011;58663;52.040;4.634;2023-04-25T09:01:28;3.08;;;0.65;;
70997;SDS011;58663;52.040;4.634;2023-04-25T09:03:54;2.40;;;0.90;;
70997;SDS011;58663;52.040;4.634;2023-04-25T09:06:19;5.38;;;0.93;;
70997;SDS011;58663;52.040;4.634;2023-04-25T09:08:45;9.05;;;1.00;;
70997;SDS011;58663;52.040;4.634;2023-04-25T09:11:10;4.82;;;1.00;;
70997;SDS011;58663;52.040;4.634;2023-04-25T09:13:37;3.67;;;1.08;;
70997;SDS011;58663;52.040;4.634;2023-04-25T09:16:03;2.65;;;1.08;;
70997;SDS011;58663;52.040;4.634;2023-04-25T09:18:29;5.32;;;1.27;;
70997;SDS011;58663;52.040;4.634;2023-04-25T09:21:09;6.53;;;0.90;;
70997;SDS011;58663;52.040;4.634;2023-04-25T09:23:39;3.70;;;1.17;;
70997;SDS011;58663;52.040;4.634;2023-04-25T09:26:15;5.05;;;1.10;;
70997;SDS011;58663;52.040;4.634;2023-04-25T09:28:46;7.82;;;1.20;;
70997;SDS011;58663;52.040;4.634;2023-04-25T09:31:20;7.55;;;1.17;;
70997;SDS011;58663;52.040;4.634;2023-04-25T09:33:46;5.18;;;1.45;;
70997;SDS011;58663;52.040;4.634;2023-04-25T09:36:12;6.07;;;1.10;;
70997;SDS011;58663;52.040;4.634;2023-04-25T09:38:42;5.72;;;1.20;;
70997;SDS011;58663;52.040;4.634;2023-04-25T09:43:35;6.95;;;0.98;;
70997;SDS011;58663;52.040;4.634;2023-04-25T09:46:00;5.65;;;0.90;;
70997;SDS011;58663;52.040;4.634;2023-04-25T09:48:26;1.95;;;0.68;;
70997;SDS011;58663;52.040;4.634;2023-04-25T09:53:33;2.67;;;0.73;;
70997;SDS011;58663;52.040;4.634;2023-04-25T09:56:06;5.07;;;1.10;;
70997;SDS011;58663;52.040;4.634;2023-04-25T10:01:03;6.43;;;1.40;;
70997;SDS011;58663;52.040;4.634;2023-04-25T10:03:31;8.80;;;1.33;;
70997;SDS011;58663;52.040;4.634;2023-04-25T10:06:01;8.65;;;1.35;;
70997;SDS011;58663;52.040;4.634;2023-04-25T10:08:35;8.13;;;1.00;;
70997;SDS011;58663;52.040;4.634;2023-04-25T10:11:03;7.05;;;1.42;;
70997;SDS011;58663;52.040;4.634;2023-04-25T10:13:32;5.75;;;1.05;;
70997;SDS011;58663;52.040;4.634;2023-04-25T10:15:59;2.60;;;1.20;;
70997;SDS011;58663;52.040;4.634;2023-04-25T10:18:25;3.67;;;1.13;;
70997;SDS011;58663;52.040;4.634;2023-04-25T10:20:53;6.38;;;1.05;;
70997;SDS011;58663;52.040;4.634;2023-04-25T10:23:19;11.35;;;1.55;;
70997;SDS011;58663;52.040;4.634;2023-04-25T10:25:45;5.65;;;1.30;;
70997;SDS011;58663;52.040;4.634;2023-04-25T10:28:10;10.05;;;1.30;;
70997;SDS011;58663;52.040;4.634;2023-04-25T10:30:36;7.75;;;1.20;;
70997;SDS011;58663;52.040;4.634;2023-04-25T10:33:01;6.93;;;1.27;;
70997;SDS011;58663;52.040;4.634;2023-04-25T10:35:27;7.72;;;1.00;;
70997;SDS011;58663;52.040;4.634;2023-04-25T10:38:03;10.93;;;1.33;;
70997;SDS011;58663;52.040;4.634;2023-04-25T10:40:37;14.05;;;1.67;;
70997;SDS011;58663;52.040;4.634;2023-04-25T10:45:56;8.70;;;1.08;;
70997;SDS011;58663;52.040;4.634;2023-04-25T10:48:24;11.43;;;1.20;;
70997;SDS011;58663;52.040;4.634;2023-04-25T10:51:39;3.67;;;1.30;;
70997;SDS011;58663;52.040;4.634;2023-04-25T10:54:07;9.77;;;1.15;;
70997;SDS011;58663;52.040;4.634;2023-04-25T10:56:32;8.82;;;1.50;;
70997;SDS011;58663;52.040;4.634;2023-04-25T10:59:10;6.68;;;1.60;;
70997;SDS011;58663;52.040;4.634;2023-04-25T11:01:45;14.68;;;1.40;;
70997;SDS011;58663;52.040;4.634;2023-04-25T11:09:40;5.28;;;1.02;;
70997;SDS011;58663;52.040;4.634;2023-04-25T11:12:07;7.03;;;1.50;;
70997;SDS011;58663;52.040;4.634;2023-04-25T11:14:33;2.85;;;1.27;;
70997;SDS011;58663;52.040;4.634;2023-04-25T11:16:59;6.22;;;1.42;;
70997;SDS011;58663;52.040;4.634;2023-04-25T11:19:32;5.07;;;1.00;;
70997;SDS011;58663;52.040;4.634;2023-04-25T11:22:06;2.85;;;1.10;;
70997;SDS011;58663;52.040;4.634;2023-04-25T11:24:33;3.65;;;1.13;;
70997;SDS011;58663;52.040;4.634;2023-04-25T11:27:04;5.43;;;1.00;;
70997;SDS011;58663;52.040;4.634;2023-04-25T11:29:33;8.05;;;1.27;;
70997;SDS011;58663;52.040;4.634;2023-04-25T11:31:59;13.15;;;2.10;;
70997;SDS011;58663;52.040;4.634;2023-04-25T11:34:29;4.80;;;1.00;;
70997;SDS011;58663;52.040;4.634;2023-04-25T11:36:55;4.93;;;1.30;;
70997;SDS011;58663;52.040;4.634;2023-04-25T11:39:21;5.40;;;1.10;;
70997;SDS011;58663;52.040;4.634;2023-04-25T11:41:48;8.38;;;1.60;;
70997;SDS011;58663;52.040;4.634;2023-04-25T11:44:18;16.95;;;1.58;;
70997;SDS011;58663;52.040;4.634;2023-04-25T11:46:44;17.35;;;1.65;;
70997;SDS011;58663;52.040;4.634;2023-04-25T11:49:09;10.63;;;1.15;;
70997;SDS011;58663;52.040;4.634;2023-04-25T11:51:41;4.78;;;1.02;;
70997;SDS011;58663;52.040;4.634;2023-04-25T11:54:08;9.00;;;1.67;;
70997;SDS011;58663;52.040;4.634;2023-04-25T11:56:33;6.93;;;1.23;;
70997;SDS011;58663;52.040;4.634;2023-04-25T11:59:00;6.90;;;1.52;;
70997;SDS011;58663;52.040;4.634;2023-04-25T12:03:55;6.88;;;1.25;;
70997;SDS011;58663;52.040;4.634;2023-04-25T12:06:21;4.10;;;1.42;;
70997;SDS011;58663;52.040;4.634;2023-04-25T12:09:01;6.28;;;1.40;;
70997;SDS011;58663;52.040;4.634;2023-04-25T12:11:29;6.85;;;1.20;;
70997;SDS011;58663;52.040;4.634;2023-04-25T12:13:55;6.30;;;1.02;;
70997;SDS011;58663;52.040;4.634;2023-04-25T12:16:21;6.18;;;1.60;;
70997;SDS011;58663;52.040;4.634;2023-04-25T12:18:46;3.78;;;1.20;;
70997;SDS011;58663;52.040;4.634;2023-04-25T12:21:12;5.68;;;1.23;;
70997;SDS011;58663;52.040;4.634;2023-04-25T12:23:38;2.80;;;1.02;;
70997;SDS011;58663;52.040;4.634;2023-04-25T12:26:04;4.47;;;1.10;;
70997;SDS011;58663;52.040;4.634;2023-04-25T12:28:31;3.33;;;1.17;;
70997;SDS011;58663;52.040;4.634;2023-04-25T12:31:01;3.80;;;0.80;;
70997;SDS011;58663;52.040;4.634;2023-04-25T12:33:32;3.97;;;1.27;;
70997;SDS011;58663;52.040;4.634;2023-04-25T12:36:02;4.72;;;1.35;;
70997;SDS011;58663;52.040;4.634;2023-04-25T12:38:35;5.25;;;1.30;;
70997;SDS011;58663;52.040;4.634;2023-04-25T12:41:02;6.70;;;1.33;;
70997;SDS011;58663;52.040;4.634;2023-04-25T12:43:27;3.40;;;0.93;;
70997;SDS011;58663;52.040;4.634;2023-04-25T12:45:53;7.60;;;1.67;;
70997;SDS011;58663;52.040;4.634;2023-04-25T12:48:20;11.00;;;1.25;;
70997;SDS011;58663;52.040;4.634;2023-04-25T12:50:46;7.07;;;1.27;;
70997;SDS011;58663;52.040;4.634;2023-04-25T12:53:18;6.22;;;1.45;;
70997;SDS011;58663;52.040;4.634;2023-04-25T12:55:44;5.30;;;1.27;;
70997;SDS011;58663;52.040;4.634;2023-04-25T12:58:16;8.40;;;1.30;;
70997;SDS011;58663;52.040;4.634;2023-04-25T13:00:43;6.88;;;1.92;;
70997;SDS011;58663;52.040;4.634;2023-04-25T13:03:08;3.55;;;1.25;;
70997;SDS011;58663;52.040;4.634;2023-04-25T13:05:35;6.32;;;1.60;;
70997;SDS011;58663;52.040;4.634;2023-04-25T13:08:01;3.15;;;0.95;;
70997;SDS011;58663;52.040;4.634;2023-04-25T13:10:27;4.53;;;0.95;;
70997;SDS011;58663;52.040;4.634;2023-04-25T13:12:52;5.43;;;1.10;;
70997;SDS011;58663;52.040;4.634;2023-04-25T13:15:17;5.20;;;1.10;;
70997;SDS011;58663;52.040;4.634;2023-04-25T13:17:43;5.38;;;1.33;;
70997;SDS011;58663;52.040;4.634;2023-04-25T13:20:08;4.40;;;0.90;;
70997;SDS011;58663;52.040;4.634;2023-04-25T13:22:35;8.55;;;1.13;;
70997;SDS011;58663;52.040;4.634;2023-04-25T13:25:02;5.68;;;1.13;;
70997;SDS011;58663;52.040;4.634;2023-04-25T13:27:28;2.92;;;1.30;;
70997;SDS011;58663;52.040;4.634;2023-04-25T13:29:53;10.40;;;1.23;;
70997;SDS011;58663;52.040;4.634;2023-04-25T13:32:19;7.28;;;1.52;;
70997;SDS011;58663;52.040;4.634;2023-04-25T13:34:44;6.80;;;1.45;;
70997;SDS011;58663;52.040;4.634;2023-04-25T13:37:10;4.88;;;1.30;;
70997;SDS011;58663;52.040;4.634;2023-04-25T13:39:35;6.32;;;1.45;;
70997;SDS011;58663;52.040;4.634;2023-04-25T13:42:00;8.38;;;1.73;;
70997;SDS011;58663;52.040;4.634;2023-04-25T13:44:26;13.15;;;2.20;;
70997;SDS011;58663;52.040;4.634;2023-04-25T13:46:52;5.25;;;1.27;;
70997;SDS011;58663;52.040;4.634;2023-04-25T13:49:17;3.72;;;1.17;;
70997;SDS011;58663;52.040;4.634;2023-04-25T13:51:43;8.77;;;1.42;;
70997;SDS011;58663;52.040;4.634;2023-04-25T13:54:08;11.15;;;1.55;;
70997;SDS011;58663;52.040;4.634;2023-04-25T13:56:33;5.60;;;1.10;;
70997;SDS011;58663;52.040;4.634;2023-04-25T13:58:59;23.80;;;2.38;;
70997;SDS011;58663;52.040;4.634;2023-04-25T14:01:24;4.97;;;1.30;;
70997;SDS011;58663;52.040;4.634;2023-04-25T14:03:51;4.78;;;1.27;;
70997;SDS011;58663;52.040;4.634;2023-04-25T14:06:16;7.88;;;1.20;;
70997;SDS011;58663;52.040;4.634;2023-04-25T14:08:47;5.80;;;1.25;;
70997;SDS011;58663;52.040;4.634;2023-04-25T14:11:13;4.63;;;1.50;;
70997;SDS011;58663;52.040;4.634;2023-04-25T14:13:38;4.57;;;1.15;;
70997;SDS011;58663;52.040;4.634;2023-04-25T14:16:04;4.18;;;1.50;;
70997;SDS011;58663;52.040;4.634;2023-04-25T14:18:30;4.03;;;1.38;;
70997;SDS011;58663;52.040;4.634;2023-04-25T14:20:55;2.78;;;1.02;;
70997;SDS011;58663;52.040;4.634;2023-04-25T14:23:21;4.82;;;1.10;;
70997;SDS011;58663;52.040;4.634;2023-04-25T14:25:46;5.72;;;1.35;;
70997;SDS011;58663;52.040;4.634;2023-04-25T14:28:12;2.90;;;1.10;;
70997;SDS011;58663;52.040;4.634;2023-04-25T14:30:37;5.80;;;0.90;;
70997;SDS011;58663;52.040;4.634;2023-04-25T14:33:03;4.75;;;1.30;;
70997;SDS011;58663;52.040;4.634;2023-04-25T14:35:28;8.48;;;1.30;;
70997;SDS011;58663;52.040;4.634;2023-04-25T14:37:54;3.15;;;1.15;;
70997;SDS011;58663;52.040;4.634;2023-04-25T14:40:19;4.00;;;1.13;;
70997;SDS011;58663;52.040;4.634;2023-04-25T14:42:47;1.70;;;1.00;;
70997;SDS011;58663;52.040;4.634;2023-04-25T14:45:13;4.75;;;1.23;;
70997;SDS011;58663;52.040;4.634;2023-04-25T14:47:38;3.03;;;1.08;;
70997;SDS011;58663;52.040;4.634;2023-04-25T14:50:05;2.38;;;0.85;;
70997;SDS011;58663;52.040;4.634;2023-04-25T14:52:31;5.05;;;1.13;;
70997;SDS011;58663;52.040;4.634;2023-04-25T14:54:56;6.30;;;1.40;;
70997;SDS011;58663;52.040;4.634;2023-04-25T14:57:21;7.50;;;1.45;;
70997;SDS011;58663;52.040;4.634;2023-04-25T14:59:47;2.88;;;1.10;;
70997;SDS011;58663;52.040;4.634;2023-04-25T15:02:12;4.65;;;1.27;;